createdAt,value
2022-08-14T00:02:02.946Z,98530.52
2022-08-14T00:04:44.548Z,98525.95
2022-08-14T00:07:14.017Z,98525.90
2022-08-14T00:10:01.949Z,98525.23
2022-08-14T00:12:39.506Z,98520.38
2022-08-14T00:15:10.796Z,98521.77
2022-08-14T00:17:48.189Z,98519.71
2022-08-14T00:20:31.191Z,98522.55
2022-08-14T00:23:14.509Z,98515.36
2022-08-14T00:25:54.085Z,98519.55
2022-08-14T00:28:35.158Z,98520.08
2022-08-14T00:31:03.123Z,98520.85
2022-08-14T00:33:51.914Z,98528.54
2022-08-14T00:36:36.865Z,98530.56
2022-08-14T00:39:06.526Z,98529.25
2022-08-14T00:41:36.209Z,98530.83
2022-08-14T00:44:06.795Z,98526.91
2022-08-14T00:46:37.237Z,98525.20
2022-08-14T00:49:05.292Z,98529.61
2022-08-14T00:51:34.661Z,98530.09
2022-08-14T00:54:20.883Z,98524.13
2022-08-14T00:56:51.646Z,98525.59
2022-08-14T00:59:27.709Z,98524.60
2022-08-14T01:01:58.587Z,98523.60
2022-08-14T01:04:51.418Z,98531.45
2022-08-14T01:07:20.260Z,98529.65
2022-08-14T01:09:50.679Z,98532.67
2022-08-14T01:12:26.913Z,98531.38
2022-08-14T01:14:58.322Z,98528.96
2022-08-14T01:17:49.368Z,98528.23
2022-08-14T01:20:39.743Z,98526.50
2022-08-14T01:23:09.826Z,98526.72
2022-08-14T01:25:43.870Z,98526.39
2022-08-14T01:28:46.383Z,98528.77
2022-08-14T01:31:00.662Z,98529.13
2022-08-14T01:33:29.549Z,98531.05
2022-08-14T01:36:04.653Z,98527.58
2022-08-14T01:38:37.398Z,98529.98
2022-08-14T01:41:11.862Z,98526.27
2022-08-14T01:43:56.336Z,98528.62
2022-08-14T01:46:24.832Z,98526.46
2022-08-14T01:48:52.078Z,98527.10
2022-08-14T01:51:22.422Z,98528.75
2022-08-14T01:53:55.419Z,98523.66
2022-08-14T01:56:32.789Z,98524.07
2022-08-14T01:59:21.156Z,98527.62
2022-08-14T02:01:58.886Z,98527.77
2022-08-14T02:04:54.935Z,98524.36
2022-08-14T02:07:17.705Z,98525.96
2022-08-14T02:10:01.745Z,98523.77
2022-08-14T02:12:29.203Z,98522.69
2022-08-14T02:15:00.568Z,98522.16
2022-08-14T02:17:29.236Z,98524.59
2022-08-14T02:19:57.850Z,98524.77
2022-08-14T02:22:28.765Z,98522.04
2022-08-14T02:25:01.121Z,98522.06
2022-08-14T02:28:23.175Z,98524.14
2022-08-14T02:30:15.824Z,98520.27
2022-08-14T02:32:45.437Z,98517.03
2022-08-14T02:35:18.419Z,98514.69
2022-08-14T02:37:49.342Z,98513.55
2022-08-14T02:40:17.822Z,98514.06
2022-08-14T02:42:54.636Z,98512.86
2022-08-14T02:45:38.414Z,98511.20
2022-08-14T02:49:05.531Z,98510.63
2022-08-14T02:51:00.838Z,98510.77
2022-08-14T02:53:29.740Z,98506.55
2022-08-14T02:56:03.006Z,98502.98
2022-08-14T02:58:39.272Z,98504.01
2022-08-14T03:01:09.500Z,98505.75
2022-08-14T03:03:38.725Z,98501.91
2022-08-14T03:06:07.350Z,98500.95
2022-08-14T03:08:37.366Z,98498.91
2022-08-14T03:11:08.833Z,98494.54
2022-08-14T03:13:37.734Z,98494.10
2022-08-14T03:16:09.027Z,98491.39
2022-08-14T03:18:47.920Z,98493.30
2022-08-14T03:21:22.915Z,98495.92
2022-08-14T03:23:56.262Z,98491.30
2022-08-14T03:26:29.750Z,98489.23
2022-08-14T03:29:00.973Z,98487.85
2022-08-14T03:31:29.290Z,98489.98
2022-08-14T03:33:59.820Z,98489.60
2022-08-14T03:37:37.590Z,98490.09
2022-08-14T03:39:24.258Z,98492.27
2022-08-14T03:41:55.636Z,98497.71
2022-08-14T03:45:25.808Z,98494.84
2022-08-14T03:47:11.962Z,98493.89
2022-08-14T03:49:42.189Z,98489.67
2022-08-14T03:52:27.873Z,98495.16
2022-08-14T03:54:58.265Z,98491.05
2022-08-14T03:57:25.737Z,98491.30
2022-08-14T03:59:52.650Z,98491.98
2022-08-14T04:02:33.272Z,98486.23
2022-08-14T04:05:12.360Z,98489.19
2022-08-14T04:08:00.225Z,98491.35
2022-08-14T04:10:32.074Z,98489.86
2022-08-14T04:13:05.470Z,98490.80
2022-08-14T04:15:56.482Z,98490.58
2022-08-14T04:18:19.900Z,98485.02
2022-08-14T04:20:54.710Z,98484.13
2022-08-14T04:23:23.588Z,98484.55
2022-08-14T04:25:56.326Z,98483.86
2022-08-14T04:29:07.719Z,98484.36
2022-08-14T04:31:12.334Z,98486.95
2022-08-14T04:33:42.358Z,98485.48
2022-08-14T04:36:09.396Z,98486.97
2022-08-14T04:39:01.844Z,98481.19
2022-08-14T04:41:47.734Z,98485.16
2022-08-14T04:44:36.267Z,98488.89
2022-08-14T04:47:36.521Z,98492.72
2022-08-14T04:50:13.283Z,98488.28
2022-08-14T04:52:41.152Z,98487.52
2022-08-14T04:55:10.786Z,98486.83
2022-08-14T04:57:39.016Z,98486.34
2022-08-14T05:00:07.344Z,98479.98
2022-08-14T05:02:43.713Z,98477.98
2022-08-14T05:05:10.827Z,98482.39
2022-08-14T05:07:53.999Z,98483.20
2022-08-14T05:10:24.750Z,98483.44
2022-08-14T05:13:10.683Z,98486.39
2022-08-14T05:15:41.103Z,98484.13
2022-08-14T05:19:17.302Z,98482.46
2022-08-14T05:21:57.187Z,98483.61
2022-08-14T05:23:54.471Z,98478.80
2022-08-14T05:26:22.642Z,98484.98
2022-08-14T05:28:49.507Z,98482.36
2022-08-14T05:31:20.303Z,98482.08
2022-08-14T05:33:54.674Z,98477.96
2022-08-14T05:36:25.251Z,98473.05
2022-08-14T05:38:53.887Z,98468.09
2022-08-14T05:41:22.337Z,98471.62
2022-08-14T05:43:49.794Z,98467.66
2022-08-14T05:46:22.372Z,98466.12
2022-08-14T05:48:55.689Z,98459.15
2022-08-14T05:51:24.660Z,98461.00
2022-08-14T05:54:00.153Z,98452.35
2022-08-14T05:56:38.644Z,98458.70
2022-08-14T05:59:05.873Z,98459.02
2022-08-14T06:01:34.541Z,98459.02
2022-08-14T06:04:05.199Z,98460.54
2022-08-14T06:06:38.223Z,98466.39
2022-08-14T06:09:10.009Z,98469.10
2022-08-14T06:11:37.318Z,98467.17
2022-08-14T06:14:06.622Z,98472.48
2022-08-14T06:16:39.475Z,98469.13
2022-08-14T06:19:11.537Z,98474.23
2022-08-14T06:21:45.678Z,98476.30
2022-08-14T06:24:18.888Z,98481.19
2022-08-14T06:26:54.183Z,98478.20
2022-08-14T06:29:23.711Z,98475.67
2022-08-14T06:31:59.973Z,98474.73
2022-08-14T06:35:02.380Z,98472.45
2022-08-14T06:37:16.989Z,98473.11
2022-08-14T06:39:44.656Z,98476.95
2022-08-14T06:42:32.568Z,98476.58
2022-08-14T06:45:01.250Z,98477.27
2022-08-14T06:47:29.897Z,98477.44
2022-08-14T06:49:57.855Z,98480.00
2022-08-14T06:52:25.187Z,98479.52
2022-08-14T06:54:52.326Z,98479.31
2022-08-14T06:57:21.522Z,98478.34
2022-08-14T06:59:49.815Z,98481.15
2022-08-14T07:02:36.923Z,98480.55
2022-08-14T07:05:29.679Z,98482.55
2022-08-14T07:07:57.846Z,98481.20
2022-08-14T07:10:25.711Z,98484.58
2022-08-14T07:13:01.941Z,98483.18
2022-08-14T07:15:34.136Z,98482.86
2022-08-14T07:18:08.878Z,98489.44
2022-08-14T07:20:36.885Z,98487.06
2022-08-14T07:23:09.405Z,98487.57
2022-08-14T07:25:39.745Z,98486.96
2022-08-14T07:28:20.891Z,98489.45
2022-08-14T07:30:51.075Z,98490.83
2022-08-14T07:33:20.894Z,98487.95
2022-08-14T07:35:58.807Z,98490.02
2022-08-14T07:38:35.734Z,98493.05
2022-08-14T07:41:12.086Z,98493.80
2022-08-14T07:43:43.249Z,98494.45
2022-08-14T07:46:12.549Z,98499.31
2022-08-14T07:48:41.273Z,98493.66
2022-08-14T07:51:11.217Z,98491.80
2022-08-14T07:53:40.874Z,98485.98
2022-08-14T07:56:21.821Z,98488.54
2022-08-14T07:58:58.267Z,98488.49
2022-08-14T08:01:25.967Z,98490.11
2022-08-14T08:03:59.485Z,98487.93
2022-08-14T08:06:26.831Z,98491.05
2022-08-14T08:09:01.302Z,98486.61
2022-08-14T08:11:35.015Z,98486.61
2022-08-14T08:14:06.746Z,98483.73
2022-08-14T08:16:38.403Z,98480.17
2022-08-14T08:19:13.971Z,98481.52
2022-08-14T08:21:43.529Z,98470.38
2022-08-14T08:24:11.101Z,98467.65
2022-08-14T08:26:39.550Z,98465.95
2022-08-14T08:29:09.057Z,98463.56
2022-08-14T08:31:52.005Z,98461.33
2022-08-14T08:34:19.565Z,98458.97
2022-08-14T08:36:47.508Z,98456.14
2022-08-14T08:39:21.907Z,98456.05
2022-08-14T08:41:53.221Z,98458.27
2022-08-14T08:44:32.011Z,98463.00
2022-08-14T08:47:05.437Z,98460.77
2022-08-14T08:49:42.309Z,98455.98
2022-08-14T08:52:24.990Z,98458.64
2022-08-14T08:54:56.235Z,98459.09
2022-08-14T08:57:24.126Z,98456.64
2022-08-14T08:59:55.291Z,98454.02
2022-08-14T09:02:27.694Z,98446.38
2022-08-14T09:05:01.730Z,98447.16
2022-08-14T09:07:28.775Z,98447.80
2022-08-14T09:09:58.912Z,98440.31
2022-08-14T09:12:32.265Z,98442.13
2022-08-14T09:15:12.168Z,98439.86
2022-08-14T09:17:41.659Z,98436.45
2022-08-14T09:20:11.383Z,98432.73
2022-08-14T09:22:47.726Z,98428.95
2022-08-14T09:25:16.618Z,98423.64
2022-08-14T09:27:43.481Z,98424.23
2022-08-14T09:30:12.799Z,98423.60
2022-08-14T09:33:11.548Z,98420.45
2022-08-14T09:36:04.434Z,98419.79
2022-08-14T09:38:53.304Z,98416.22
2022-08-14T09:42:17.396Z,98416.19
2022-08-14T09:45:09.007Z,98418.17
2022-08-14T09:47:46.462Z,98409.36
2022-08-14T09:50:17.194Z,98409.80
2022-08-14T09:53:03.743Z,98412.09
2022-08-14T09:55:36.887Z,98414.34
2022-08-14T09:58:15.024Z,98413.88
2022-08-14T10:00:53.880Z,98411.19
2022-08-14T10:03:25.578Z,98407.73
2022-08-14T10:06:13.218Z,98405.81
2022-08-14T10:08:51.245Z,98411.14
2022-08-14T10:11:23.051Z,98415.60
2022-08-14T10:13:55.861Z,98415.31
2022-08-14T10:16:33.350Z,98420.50
2022-08-14T10:19:07.273Z,98418.30
2022-08-14T10:21:38.535Z,98415.65
2022-08-14T10:24:08.622Z,98415.58
2022-08-14T10:26:36.693Z,98412.93
2022-08-14T10:29:19.408Z,98410.14
2022-08-14T10:31:56.933Z,98417.44
2022-08-14T10:34:29.125Z,98413.22
2022-08-14T10:37:14.213Z,98409.09
2022-08-14T10:40:02.051Z,98415.85
2022-08-14T10:42:39.160Z,98409.99
2022-08-14T10:45:20.757Z,98415.95
2022-08-14T10:48:07.801Z,98411.60
2022-08-14T10:50:41.059Z,98409.97
2022-08-14T10:53:08.191Z,98410.14
2022-08-14T10:55:45.289Z,98414.63
2022-08-14T10:58:14.888Z,98414.39
2022-08-14T11:00:56.569Z,98414.22
2022-08-14T11:03:26.682Z,98414.37
2022-08-14T11:06:15.794Z,98415.40
2022-08-14T11:08:42.717Z,98411.38
2022-08-14T11:11:12.737Z,98411.21
2022-08-14T11:13:43.778Z,98415.77
2022-08-14T11:16:12.269Z,98418.77
2022-08-14T11:18:44.325Z,98418.23
2022-08-14T11:21:15.365Z,98412.75
2022-08-14T11:23:43.878Z,98411.46
2022-08-14T11:26:16.654Z,98414.42
2022-08-14T11:28:47.804Z,98417.16
2022-08-14T11:31:21.956Z,98407.04
2022-08-14T11:33:57.353Z,98415.48
2022-08-14T11:36:57.126Z,98414.67
2022-08-14T11:39:33.577Z,98411.01
2022-08-14T11:42:55.503Z,98412.23
2022-08-14T11:45:00.512Z,98409.39
2022-08-14T11:47:35.529Z,98406.69
2022-08-14T11:50:24.923Z,98412.52
2022-08-14T11:53:02.402Z,98418.27
2022-08-14T11:55:35.895Z,98420.67
2022-08-14T11:58:09.071Z,98418.63
2022-08-14T12:00:49.634Z,98421.52
2022-08-14T12:03:19.884Z,98428.73
2022-08-14T12:06:04.873Z,98428.36
2022-08-14T12:08:34.983Z,98430.32
2022-08-14T12:11:07.213Z,98433.27
2022-08-14T12:13:36.718Z,98434.86
2022-08-14T12:16:11.291Z,98432.35
2022-08-14T12:18:48.063Z,98427.22
2022-08-14T12:21:29.526Z,98428.19
2022-08-14T12:24:02.482Z,98434.22
2022-08-14T12:26:39.937Z,98433.56
2022-08-14T12:29:10.307Z,98428.64
2022-08-14T12:31:44.756Z,98427.91
2022-08-14T12:34:20.679Z,98424.92
2022-08-14T12:36:50.187Z,98423.01
2022-08-14T12:39:19.084Z,98425.05
2022-08-14T12:41:57.263Z,98423.44
2022-08-14T12:44:38.063Z,98425.07
2022-08-14T12:47:17.198Z,98424.14
2022-08-14T12:49:57.709Z,98423.63
2022-08-14T12:52:43.152Z,98420.77
2022-08-14T12:55:22.265Z,98418.70
2022-08-14T12:57:53.517Z,98415.32
2022-08-14T13:00:24.007Z,98413.13
2022-08-14T13:02:55.268Z,98410.33
2022-08-14T13:05:24.685Z,98407.70
2022-08-14T13:07:56.799Z,98406.84
2022-08-14T13:10:47.118Z,98406.08
2022-08-14T13:13:15.017Z,98407.78
2022-08-14T13:15:45.134Z,98407.80
2022-08-14T13:18:14.669Z,98406.11
2022-08-14T13:20:51.254Z,98406.79
2022-08-14T13:23:31.569Z,98404.39
2022-08-14T13:26:00.159Z,98406.08
2022-08-14T13:28:32.859Z,98408.84
2022-08-14T13:31:04.118Z,98401.42
2022-08-14T13:33:40.456Z,98402.02
2022-08-14T13:36:09.034Z,98398.39
2022-08-14T13:38:36.691Z,98401.08
2022-08-14T13:41:03.644Z,98404.09
2022-08-14T13:43:31.647Z,98403.14
2022-08-14T13:46:04.715Z,98402.95
2022-08-14T13:48:36.333Z,98399.91
2022-08-14T13:51:07.852Z,98401.02
2022-08-14T13:53:43.226Z,98399.09
2022-08-14T13:56:14.837Z,98392.44
2022-08-14T13:59:01.113Z,98393.39
2022-08-14T14:01:29.192Z,98395.63
2022-08-14T14:03:56.215Z,98394.66
2022-08-14T14:06:24.900Z,98393.32
2022-08-14T14:08:55.133Z,98394.06
2022-08-14T14:11:26.062Z,98390.59
2022-08-14T14:13:59.160Z,98386.68
2022-08-14T14:16:30.930Z,98388.31
2022-08-14T14:19:06.059Z,98391.31
2022-08-14T14:21:36.374Z,98391.89
2022-08-14T14:24:05.435Z,98388.75
2022-08-14T14:26:33.211Z,98393.41
2022-08-14T14:29:04.068Z,98394.73
2022-08-14T14:31:31.353Z,98394.86
2022-08-14T14:34:07.386Z,98396.88
2022-08-14T14:36:50.145Z,98394.27
2022-08-14T14:39:27.566Z,98393.14
2022-08-14T14:41:58.997Z,98388.83
2022-08-14T14:44:29.599Z,98383.17
2022-08-14T14:46:57.884Z,98385.16
2022-08-14T14:51:27.574Z,98381.30
2022-08-14T14:53:54.859Z,98383.94
2022-08-14T14:56:51.688Z,98379.77
2022-08-14T14:59:11.626Z,98378.35
2022-08-14T15:01:39.896Z,98375.88
2022-08-14T15:04:12.220Z,98375.24
2022-08-14T15:06:49.091Z,98368.84
2022-08-14T15:09:18.108Z,98369.02
2022-08-14T15:11:47.140Z,98366.52
2022-08-14T15:14:55.854Z,98364.88
2022-08-14T15:17:02.759Z,98362.48
2022-08-14T15:19:29.863Z,98358.88
2022-08-14T15:21:58.331Z,98359.09
2022-08-14T15:24:27.013Z,98364.63
2022-08-14T15:26:58.702Z,98361.19
2022-08-14T15:29:26.426Z,98363.27
2022-08-14T15:31:53.893Z,98358.76
2022-08-14T15:34:45.654Z,98357.46
2022-08-14T15:37:12.734Z,98359.41
2022-08-14T15:39:41.402Z,98364.63
2022-08-14T15:42:14.510Z,98369.11
2022-08-14T15:44:56.879Z,98369.86
2022-08-14T15:47:28.811Z,98372.55
2022-08-14T15:49:59.668Z,98370.91
2022-08-14T15:52:32.935Z,98375.23
2022-08-14T15:55:08.558Z,98379.45
2022-08-14T15:57:36.837Z,98380.83
2022-08-14T16:00:39.949Z,98389.35
2022-08-14T16:03:16.471Z,98391.27
2022-08-14T16:05:46.048Z,98390.67
2022-08-14T16:08:29.560Z,98391.25
2022-08-14T16:10:58.928Z,98401.21
2022-08-14T16:13:39.119Z,98402.81
2022-08-14T16:16:34.735Z,98396.48
2022-08-14T16:18:59.035Z,98392.33
2022-08-14T16:21:31.679Z,98387.31
2022-08-14T16:24:00.435Z,98382.08
2022-08-14T16:26:29.909Z,98378.52
2022-08-14T16:29:05.763Z,98379.10
2022-08-14T16:31:36.067Z,98375.77
2022-08-14T16:34:44.653Z,98378.92
2022-08-14T16:36:54.590Z,98369.91
2022-08-14T16:39:21.917Z,98371.76
2022-08-14T16:41:53.249Z,98374.34
2022-08-14T16:44:31.393Z,98371.25
2022-08-14T16:47:00.002Z,98376.52
2022-08-14T16:50:02.573Z,98372.98
2022-08-14T16:52:26.262Z,98377.49
2022-08-14T16:55:06.093Z,98375.38
2022-08-14T16:57:34.377Z,98385.25
2022-08-14T17:00:07.255Z,98388.42
2022-08-14T17:02:47.415Z,98388.77
2022-08-14T17:05:38.183Z,98390.35
2022-08-14T17:08:28.502Z,98393.02
2022-08-14T17:10:52.344Z,98394.20
2022-08-14T17:13:59.348Z,98399.21
2022-08-14T17:16:25.425Z,98404.71
2022-08-14T17:19:00.992Z,98403.12
2022-08-14T17:21:37.503Z,98404.12
2022-08-14T17:24:58.415Z,98402.61
2022-08-14T17:26:59.902Z,98401.55
2022-08-14T17:29:32.477Z,98399.19
2022-08-14T17:32:04.538Z,98401.17
2022-08-14T17:34:50.680Z,98402.92
2022-08-14T17:37:46.260Z,98400.52
2022-08-14T17:43:02.805Z,98404.46
2022-08-14T17:45:41.057Z,98407.86
2022-08-14T17:49:09.978Z,98409.98
2022-08-14T17:51:23.819Z,98409.50
2022-08-14T17:54:03.476Z,98407.66
2022-08-14T17:56:34.266Z,98407.86
2022-08-14T17:59:07.128Z,98405.72
2022-08-14T18:01:40.937Z,98401.77
2022-08-14T18:04:24.951Z,98401.81
2022-08-14T18:07:08.770Z,98402.80
2022-08-14T18:09:56.187Z,98405.29
2022-08-14T18:12:37.128Z,98404.50
2022-08-14T18:15:15.941Z,98412.30
2022-08-14T18:17:53.240Z,98412.21
2022-08-14T18:21:42.048Z,98413.98
2022-08-14T18:23:12.747Z,98415.02
2022-08-14T18:25:49.269Z,98410.94
2022-08-14T18:28:18.427Z,98411.05
2022-08-14T18:31:23.347Z,98411.41
2022-08-14T18:33:57.687Z,98408.62
2022-08-14T18:36:57.021Z,98411.02
2022-08-14T18:40:02.354Z,98407.01
2022-08-14T18:42:24.379Z,98409.55
2022-08-14T18:45:01.023Z,98407.54
2022-08-14T18:47:32.672Z,98410.55
2022-08-14T18:50:31.023Z,98410.08
2022-08-14T18:53:10.564Z,98411.98
2022-08-14T18:55:53.187Z,98419.33
2022-08-14T18:58:28.188Z,98422.04
2022-08-14T19:00:59.788Z,98426.91
2022-08-14T19:03:37.299Z,98428.13
2022-08-14T19:06:09.089Z,98426.82
2022-08-14T19:08:47.195Z,98423.58
2022-08-14T19:11:32.796Z,98418.44
2022-08-14T19:14:04.656Z,98426.36
2022-08-14T19:16:33.588Z,98425.34
2022-08-14T19:19:02.712Z,98420.76
2022-08-14T19:21:33.380Z,98421.00
2022-08-14T19:24:27.738Z,98421.10
2022-08-14T19:27:19.618Z,98424.38
2022-08-14T19:30:20.047Z,98418.01
2022-08-14T19:32:55.923Z,98421.27
2022-08-14T19:35:49.315Z,98420.92
2022-08-14T19:38:57.324Z,98421.40
2022-08-14T19:41:29.545Z,98412.31
2022-08-14T19:44:14.819Z,98415.19
2022-08-14T19:47:01.901Z,98413.20
2022-08-14T19:50:07.274Z,98411.22
2022-08-14T19:52:24.315Z,98414.23
2022-08-14T19:54:51.771Z,98409.38
2022-08-14T19:57:31.054Z,98405.20
2022-08-14T20:00:29.598Z,98404.92
2022-08-14T20:03:04.431Z,98413.59
2022-08-14T20:05:45.562Z,98418.34
2022-08-14T20:11:00.191Z,98424.88
2022-08-14T20:11:20.758Z,98426.80
2022-08-14T20:14:10.440Z,98427.02
2022-08-14T20:16:49.559Z,98421.89
2022-08-14T20:19:18.883Z,98423.09
2022-08-14T20:21:58.163Z,98419.85
2022-08-14T20:24:41.216Z,98418.46
2022-08-14T20:27:33.487Z,98416.91
2022-08-14T20:30:29.056Z,98418.19
2022-08-14T20:32:56.944Z,98414.70
2022-08-14T20:35:41.955Z,98417.27
2022-08-14T20:38:30.838Z,98416.44
2022-08-14T20:40:59.457Z,98413.83
2022-08-14T20:43:53.561Z,98414.30
2022-08-14T20:46:39.555Z,98417.83
2022-08-14T20:49:16.906Z,98419.00
2022-08-14T20:51:59.111Z,98421.92
2022-08-14T20:54:34.062Z,98426.41
2022-08-14T20:57:21.626Z,98426.00
2022-08-14T20:59:56.689Z,98425.27
2022-08-14T21:02:46.379Z,98428.10
2022-08-14T21:05:19.730Z,98431.95
2022-08-14T21:07:51.090Z,98434.69
2022-08-14T21:10:36.010Z,98436.98
2022-08-14T21:14:09.009Z,98434.70
2022-08-14T21:16:02.581Z,98433.18
2022-08-14T21:18:32.078Z,98434.46
2022-08-14T21:21:06.847Z,98434.77
2022-08-14T21:23:54.799Z,98434.22
2022-08-14T21:26:50.443Z,98429.66
2022-08-14T21:29:12.103Z,98428.92
2022-08-14T21:31:40.659Z,98433.55
2022-08-14T21:34:27.354Z,98430.11
2022-08-14T21:36:56.706Z,98430.00
2022-08-14T21:39:24.759Z,98429.17
2022-08-14T21:41:58.755Z,98429.08
2022-08-14T21:44:36.187Z,98432.06
2022-08-14T21:47:10.668Z,98427.08
2022-08-14T21:49:39.923Z,98425.65
2022-08-14T21:52:51.046Z,98426.54
2022-08-14T21:54:57.827Z,98422.41
2022-08-14T21:58:45.825Z,98420.02
2022-08-14T22:00:34.560Z,98420.52
2022-08-14T22:03:02.596Z,98420.00
2022-08-14T22:05:29.835Z,98418.58
2022-08-14T22:07:58.009Z,98420.96
2022-08-14T22:10:26.186Z,98421.89
2022-08-14T22:12:58.630Z,98419.36
2022-08-14T22:15:28.747Z,98420.14
2022-08-14T22:17:58.489Z,98424.04
2022-08-14T22:20:28.687Z,98424.89
2022-08-14T22:22:57.600Z,98422.84
2022-08-14T22:25:33.046Z,98418.29
2022-08-14T22:28:01.522Z,98418.71
2022-08-14T22:30:28.677Z,98418.04
2022-08-14T22:32:58.490Z,98416.03
2022-08-14T22:35:28.102Z,98411.48
2022-08-14T22:38:36.125Z,98407.35
2022-08-14T22:41:03.982Z,98402.16
2022-08-14T22:43:31.196Z,98395.53
2022-08-14T22:46:02.432Z,98393.05
2022-08-14T22:48:29.950Z,98396.44
2022-08-14T22:50:57.112Z,98393.67
2022-08-14T22:53:29.516Z,98394.88
2022-08-14T22:55:57.317Z,98400.45
2022-08-14T22:58:30.131Z,98399.94
2022-08-14T23:01:00.327Z,98402.96
2022-08-14T23:03:27.390Z,98397.23
2022-08-14T23:05:57.402Z,98396.81
2022-08-14T23:08:58.738Z,98390.46
2022-08-14T23:11:13.416Z,98390.46
2022-08-14T23:13:43.554Z,98385.59
2022-08-14T23:16:20.064Z,98385.91
2022-08-14T23:18:53.827Z,98390.59
2022-08-14T23:21:24.665Z,98387.34
2022-08-14T23:23:55.131Z,98389.13
2022-08-14T23:26:48.523Z,98389.44
2022-08-14T23:29:11.701Z,98389.14
2022-08-14T23:31:39.587Z,98388.25
2022-08-14T23:34:13.070Z,98385.64
2022-08-14T23:36:55.241Z,98377.73
2022-08-14T23:39:34.607Z,98379.02
2022-08-14T23:42:08.311Z,98373.55
2022-08-14T23:44:37.016Z,98373.46
2022-08-14T23:47:11.664Z,98374.17
2022-08-14T23:49:59.795Z,98380.20
2022-08-14T23:52:51.638Z,98379.81
2022-08-14T23:55:16.058Z,98373.73
2022-08-14T23:57:44.100Z,98366.65
